sensor_id;sensor_type;location;lat;lon;timestamp;P1;durP1;ratioP1;P2;durP2;ratioP2
14125;SDS011;7141;49.484;11.242;2022-08-02T00:01:30;4.20;;;3.90;;
14125;SDS011;7141;49.484;11.242;2022-08-02T00:03:56;4.93;;;4.23;;
14125;SDS011;7141;49.484;11.242;2022-08-02T00:06:22;4.67;;;4.20;;
14125;SDS011;7141;49.484;11.242;2022-08-02T00:08:48;4.90;;;4.50;;
14125;SDS011;7141;49.484;11.242;2022-08-02T00:11:14;5.53;;;4.40;;
14125;SDS011;7141;49.484;11.242;2022-08-02T00:13:40;5.33;;;4.13;;
14125;SDS011;7141;49.484;11.242;2022-08-02T00:16:06;5.07;;;4.20;;
14125;SDS011;7141;49.484;11.242;2022-08-02T00:18:32;5.33;;;4.23;;
14125;SDS011;7141;49.484;11.242;2022-08-02T00:20:58;4.67;;;4.27;;
14125;SDS011;7141;49.484;11.242;2022-08-02T00:23:24;4.57;;;4.13;;
14125;SDS011;7141;49.484;11.242;2022-08-02T00:25:50;4.63;;;4.17;;
14125;SDS011;7141;49.484;11.242;2022-08-02T00:28:16;7.67;;;4.93;;
14125;SDS011;7141;49.484;11.242;2022-08-02T00:30:42;4.73;;;4.33;;
14125;SDS011;7141;49.484;11.242;2022-08-02T00:33:08;4.80;;;4.40;;
14125;SDS011;7141;49.484;11.242;2022-08-02T00:35:34;4.80;;;4.40;;
14125;SDS011;7141;49.484;11.242;2022-08-02T00:38:01;5.07;;;4.30;;
14125;SDS011;7141;49.484;11.242;2022-08-02T00:40:27;5.10;;;4.20;;
14125;SDS011;7141;49.484;11.242;2022-08-02T00:43:00;5.50;;;5.00;;
14125;SDS011;7141;49.484;11.242;2022-08-02T00:45:28;4.57;;;4.17;;
14125;SDS011;7141;49.484;11.242;2022-08-02T00:47:54;5.10;;;4.60;;
14125;SDS011;7141;49.484;11.242;2022-08-02T00:50:20;4.80;;;4.40;;
14125;SDS011;7141;49.484;11.242;2022-08-02T00:52:46;5.13;;;4.10;;
14125;SDS011;7141;49.484;11.242;2022-08-02T00:55:12;5.43;;;4.23;;
14125;SDS011;7141;49.484;11.242;2022-08-02T00:57:38;4.40;;;4.00;;
14125;SDS011;7141;49.484;11.242;2022-08-02T01:00:05;5.27;;;4.40;;
14125;SDS011;7141;49.484;11.242;2022-08-02T01:02:31;4.77;;;4.37;;
14125;SDS011;7141;49.484;11.242;2022-08-02T01:04:57;4.77;;;4.37;;
14125;SDS011;7141;49.484;11.242;2022-08-02T01:07:23;6.83;;;5.00;;
14125;SDS011;7141;49.484;11.242;2022-08-02T01:09:49;5.47;;;4.30;;
14125;SDS011;7141;49.484;11.242;2022-08-02T01:12:15;6.10;;;4.23;;
14125;SDS011;7141;49.484;11.242;2022-08-02T01:14:41;4.77;;;4.37;;
14125;SDS011;7141;49.484;11.242;2022-08-02T01:17:14;7.60;;;4.30;;
14125;SDS011;7141;49.484;11.242;2022-08-02T01:19:42;5.67;;;4.30;;
14125;SDS011;7141;49.484;11.242;2022-08-02T01:30:08;5.03;;;4.10;;
14125;SDS011;7141;49.484;11.242;2022-08-02T01:32:36;4.60;;;4.23;;
14125;SDS011;7141;49.484;11.242;2022-08-02T01:35:12;6.47;;;5.03;;
14125;SDS011;7141;49.484;11.242;2022-08-02T01:37:52;4.60;;;4.20;;
14125;SDS011;7141;49.484;11.242;2022-08-02T01:40:24;6.63;;;5.93;;
14125;SDS011;7141;49.484;11.242;2022-08-02T01:42:53;5.57;;;4.93;;
14125;SDS011;7141;49.484;11.242;2022-08-02T01:45:19;4.97;;;4.43;;
14125;SDS011;7141;49.484;11.242;2022-08-02T01:47:46;4.47;;;4.13;;
14125;SDS011;7141;49.484;11.242;2022-08-02T01:50:15;4.97;;;4.40;;
14125;SDS011;7141;49.484;11.242;2022-08-02T01:52:42;4.93;;;4.47;;
14125;SDS011;7141;49.484;11.242;2022-08-02T01:55:12;5.90;;;5.40;;
14125;SDS011;7141;49.484;11.242;2022-08-02T01:57:39;5.30;;;4.80;;
14125;SDS011;7141;49.484;11.242;2022-08-02T02:00:09;5.83;;;4.70;;
14125;SDS011;7141;49.484;11.242;2022-08-02T02:02:36;4.90;;;4.50;;
14125;SDS011;7141;49.484;11.242;2022-08-02T02:05:04;4.90;;;4.50;;
14125;SDS011;7141;49.484;11.242;2022-08-02T02:07:32;6.10;;;4.07;;
14125;SDS011;7141;49.484;11.242;2022-08-02T02:09:58;4.83;;;4.43;;
14125;SDS011;7141;49.484;11.242;2022-08-02T02:12:25;5.03;;;4.40;;
14125;SDS011;7141;49.484;11.242;2022-08-02T02:14:51;5.27;;;4.23;;
14125;SDS011;7141;49.484;11.242;2022-08-02T02:17:19;5.53;;;4.30;;
14125;SDS011;7141;49.484;11.242;2022-08-02T02:19:46;4.87;;;4.47;;
14125;SDS011;7141;49.484;11.242;2022-08-02T02:22:12;4.60;;;4.20;;
14125;SDS011;7141;49.484;11.242;2022-08-02T02:24:38;5.47;;;4.70;;
14125;SDS011;7141;49.484;11.242;2022-08-02T02:27:04;5.23;;;4.73;;
14125;SDS011;7141;49.484;11.242;2022-08-02T02:29:32;4.70;;;4.30;;
14125;SDS011;7141;49.484;11.242;2022-08-02T02:31:59;5.93;;;4.50;;
14125;SDS011;7141;49.484;11.242;2022-08-02T02:34:32;5.93;;;5.30;;
14125;SDS011;7141;49.484;11.242;2022-08-02T02:37:02;5.50;;;5.00;;
14125;SDS011;7141;49.484;11.242;2022-08-02T02:39:29;6.63;;;5.17;;
14125;SDS011;7141;49.484;11.242;2022-08-02T02:41:57;6.77;;;5.27;;
14125;SDS011;7141;49.484;11.242;2022-08-02T02:44:25;5.67;;;5.03;;
14125;SDS011;7141;49.484;11.242;2022-08-02T02:46:52;7.87;;;4.73;;
14125;SDS011;7141;49.484;11.242;2022-08-02T02:49:19;5.60;;;4.60;;
14125;SDS011;7141;49.484;11.242;2022-08-02T02:51:45;7.03;;;5.27;;
14125;SDS011;7141;49.484;11.242;2022-08-02T02:54:12;6.00;;;5.07;;
14125;SDS011;7141;49.484;11.242;2022-08-02T02:56:40;5.70;;;5.20;;
14125;SDS011;7141;49.484;11.242;2022-08-02T02:59:07;6.10;;;5.33;;
14125;SDS011;7141;49.484;11.242;2022-08-02T03:01:33;6.27;;;5.10;;
14125;SDS011;7141;49.484;11.242;2022-08-02T03:04:00;5.60;;;5.07;;
14125;SDS011;7141;49.484;11.242;2022-08-02T03:06:27;5.30;;;4.80;;
14125;SDS011;7141;49.484;11.242;2022-08-02T03:08:54;6.03;;;5.00;;
14125;SDS011;7141;49.484;11.242;2022-08-02T03:11:20;5.63;;;5.13;;
14125;SDS011;7141;49.484;11.242;2022-08-02T03:13:46;5.90;;;5.40;;
14125;SDS011;7141;49.484;11.242;2022-08-02T03:16:13;5.70;;;5.20;;
14125;SDS011;7141;49.484;11.242;2022-08-02T03:18:40;6.00;;;5.47;;
14125;SDS011;7141;49.484;11.242;2022-08-02T03:21:10;5.47;;;4.97;;
14125;SDS011;7141;49.484;11.242;2022-08-02T03:23:37;5.73;;;4.83;;
14125;SDS011;7141;49.484;11.242;2022-08-02T03:26:03;7.20;;;4.63;;
14125;SDS011;7141;49.484;11.242;2022-08-02T03:28:29;8.30;;;5.33;;
14125;SDS011;7141;49.484;11.242;2022-08-02T03:30:55;7.07;;;5.23;;
14125;SDS011;7141;49.484;11.242;2022-08-02T03:33:22;5.80;;;5.30;;
14125;SDS011;7141;49.484;11.242;2022-08-02T03:35:49;6.83;;;5.93;;
14125;SDS011;7141;49.484;11.242;2022-08-02T03:38:16;6.13;;;5.53;;
14125;SDS011;7141;49.484;11.242;2022-08-02T03:40:42;5.93;;;5.43;;
14125;SDS011;7141;49.484;11.242;2022-08-02T03:43:09;6.17;;;5.63;;
14125;SDS011;7141;49.484;11.242;2022-08-02T03:45:36;6.80;;;5.00;;
14125;SDS011;7141;49.484;11.242;2022-08-02T03:48:04;5.60;;;5.10;;
14125;SDS011;7141;49.484;11.242;2022-08-02T03:50:30;6.43;;;5.30;;
14125;SDS011;7141;49.484;11.242;2022-08-02T03:52:56;5.80;;;5.30;;
14125;SDS011;7141;49.484;11.242;2022-08-02T03:55:23;5.23;;;4.77;;
14125;SDS011;7141;49.484;11.242;2022-08-02T03:57:49;5.87;;;5.17;;
14125;SDS011;7141;49.484;11.242;2022-08-02T04:00:19;5.50;;;4.97;;
14125;SDS011;7141;49.484;11.242;2022-08-02T04:02:45;6.00;;;5.50;;
14125;SDS011;7141;49.484;11.242;2022-08-02T04:05:11;6.07;;;5.47;;
14125;SDS011;7141;49.484;11.242;2022-08-02T04:07:37;7.30;;;5.23;;
14125;SDS011;7141;49.484;11.242;2022-08-02T04:10:04;6.43;;;5.23;;
14125;SDS011;7141;49.484;11.242;2022-08-02T04:12:30;6.97;;;5.70;;
14125;SDS011;7141;49.484;11.242;2022-08-02T04:14:57;5.67;;;5.13;;
14125;SDS011;7141;49.484;11.242;2022-08-02T04:17:23;5.80;;;5.30;;
14125;SDS011;7141;49.484;11.242;2022-08-02T04:19:54;6.40;;;5.73;;
14125;SDS011;7141;49.484;11.242;2022-08-02T04:22:29;6.47;;;5.77;;
14125;SDS011;7141;49.484;11.242;2022-08-02T04:24:57;6.00;;;5.50;;
14125;SDS011;7141;49.484;11.242;2022-08-02T04:27:24;5.80;;;5.30;;
14125;SDS011;7141;49.484;11.242;2022-08-02T04:29:50;5.57;;;4.83;;
14125;SDS011;7141;49.484;11.242;2022-08-02T04:32:17;5.40;;;4.90;;
14125;SDS011;7141;49.484;11.242;2022-08-02T04:34:43;7.23;;;5.37;;
14125;SDS011;7141;49.484;11.242;2022-08-02T04:37:10;7.63;;;5.10;;
14125;SDS011;7141;49.484;11.242;2022-08-02T04:39:36;9.23;;;5.70;;
14125;SDS011;7141;49.484;11.242;2022-08-02T04:42:03;5.37;;;4.97;;
14125;SDS011;7141;49.484;11.242;2022-08-02T04:44:29;5.70;;;5.10;;
14125;SDS011;7141;49.484;11.242;2022-08-02T04:46:55;5.10;;;4.60;;
14125;SDS011;7141;49.484;11.242;2022-08-02T04:49:22;5.13;;;4.73;;
14125;SDS011;7141;49.484;11.242;2022-08-02T04:51:48;6.37;;;4.73;;
14125;SDS011;7141;49.484;11.242;2022-08-02T04:54:14;5.23;;;4.77;;
14125;SDS011;7141;49.484;11.242;2022-08-02T04:56:40;4.90;;;4.50;;
14125;SDS011;7141;49.484;11.242;2022-08-02T04:59:06;5.47;;;4.37;;
14125;SDS011;7141;49.484;11.242;2022-08-02T05:01:33;6.67;;;4.67;;
14125;SDS011;7141;49.484;11.242;2022-08-02T05:03:59;4.80;;;4.40;;
14125;SDS011;7141;49.484;11.242;2022-08-02T05:06:25;5.30;;;4.80;;
14125;SDS011;7141;49.484;11.242;2022-08-02T05:08:51;8.37;;;5.40;;
14125;SDS011;7141;49.484;11.242;2022-08-02T05:11:17;5.37;;;4.87;;
14125;SDS011;7141;49.484;11.242;2022-08-02T05:13:43;5.47;;;4.90;;
14125;SDS011;7141;49.484;11.242;2022-08-02T05:16:09;5.53;;;4.80;;
14125;SDS011;7141;49.484;11.242;2022-08-02T05:18:35;5.53;;;5.03;;
14125;SDS011;7141;49.484;11.242;2022-08-02T05:21:01;5.07;;;4.47;;
14125;SDS011;7141;49.484;11.242;2022-08-02T05:23:27;5.87;;;4.40;;
14125;SDS011;7141;49.484;11.242;2022-08-02T05:25:53;5.17;;;4.33;;
14125;SDS011;7141;49.484;11.242;2022-08-02T05:28:19;5.87;;;4.60;;
14125;SDS011;7141;49.484;11.242;2022-08-02T05:30:45;6.23;;;4.23;;
14125;SDS011;7141;49.484;11.242;2022-08-02T05:33:11;4.23;;;3.83;;
14125;SDS011;7141;49.484;11.242;2022-08-02T05:35:37;8.67;;;4.50;;
14125;SDS011;7141;49.484;11.242;2022-08-02T05:38:03;5.77;;;3.97;;
14125;SDS011;7141;49.484;11.242;2022-08-02T05:40:29;5.07;;;3.90;;
14125;SDS011;7141;49.484;11.242;2022-08-02T05:42:55;5.13;;;4.23;;
14125;SDS011;7141;49.484;11.242;2022-08-02T05:45:21;4.60;;;4.13;;
14125;SDS011;7141;49.484;11.242;2022-08-02T05:47:47;5.10;;;4.10;;
14125;SDS011;7141;49.484;11.242;2022-08-02T05:50:13;3.87;;;3.57;;
14125;SDS011;7141;49.484;11.242;2022-08-02T05:52:55;4.70;;;4.30;;
14125;SDS011;7141;49.484;11.242;2022-08-02T05:55:26;5.40;;;4.93;;
14125;SDS011;7141;49.484;11.242;2022-08-02T06:00:19;6.87;;;4.70;;
14125;SDS011;7141;49.484;11.242;2022-08-02T06:05:34;7.83;;;5.77;;
14125;SDS011;7141;49.484;11.242;2022-08-02T06:08:03;6.07;;;4.97;;
14125;SDS011;7141;49.484;11.242;2022-08-02T06:10:33;5.87;;;5.37;;
14125;SDS011;7141;49.484;11.242;2022-08-02T06:13:04;6.30;;;5.00;;
14125;SDS011;7141;49.484;11.242;2022-08-02T06:15:31;6.87;;;6.03;;
14125;SDS011;7141;49.484;11.242;2022-08-02T06:17:58;5.73;;;5.23;;
14125;SDS011;7141;49.484;11.242;2022-08-02T06:20:25;10.03;;;5.90;;
14125;SDS011;7141;49.484;11.242;2022-08-02T06:22:51;5.93;;;5.33;;
14125;SDS011;7141;49.484;11.242;2022-08-02T06:25:19;6.73;;;5.60;;
14125;SDS011;7141;49.484;11.242;2022-08-02T06:27:46;6.27;;;5.67;;
14125;SDS011;7141;49.484;11.242;2022-08-02T06:30:14;5.90;;;5.30;;
14125;SDS011;7141;49.484;11.242;2022-08-02T06:32:40;5.50;;;4.33;;
14125;SDS011;7141;49.484;11.242;2022-08-02T06:35:06;7.00;;;5.13;;
14125;SDS011;7141;49.484;11.242;2022-08-02T06:40:09;6.57;;;4.27;;
14125;SDS011;7141;49.484;11.242;2022-08-02T06:42:40;7.13;;;5.20;;
14125;SDS011;7141;49.484;11.242;2022-08-02T06:45:08;5.70;;;4.77;;
14125;SDS011;7141;49.484;11.242;2022-08-02T06:47:34;6.13;;;4.77;;
14125;SDS011;7141;49.484;11.242;2022-08-02T06:50:00;5.07;;;4.60;;
14125;SDS011;7141;49.484;11.242;2022-08-02T06:52:27;5.77;;;4.80;;
14125;SDS011;7141;49.484;11.242;2022-08-02T06:54:55;5.80;;;4.77;;
14125;SDS011;7141;49.484;11.242;2022-08-02T06:57:21;4.70;;;4.27;;
14125;SDS011;7141;49.484;11.242;2022-08-02T06:59:47;5.47;;;4.97;;
14125;SDS011;7141;49.484;11.242;2022-08-02T07:02:13;5.93;;;4.40;;
14125;SDS011;7141;49.484;11.242;2022-08-02T07:04:39;5.30;;;4.80;;
14125;SDS011;7141;49.484;11.242;2022-08-02T07:07:05;6.57;;;4.73;;
14125;SDS011;7141;49.484;11.242;2022-08-02T07:09:31;5.40;;;5.00;;
14125;SDS011;7141;49.484;11.242;2022-08-02T07:11:57;6.00;;;5.20;;
14125;SDS011;7141;49.484;11.242;2022-08-02T07:14:23;4.67;;;4.27;;
14125;SDS011;7141;49.484;11.242;2022-08-02T07:16:49;4.80;;;4.40;;
14125;SDS011;7141;49.484;11.242;2022-08-02T07:19:15;4.83;;;4.37;;
14125;SDS011;7141;49.484;11.242;2022-08-02T07:21:41;4.93;;;4.53;;
14125;SDS011;7141;49.484;11.242;2022-08-02T07:24:07;4.80;;;4.33;;
14125;SDS011;7141;49.484;11.242;2022-08-02T07:26:33;5.23;;;4.17;;
14125;SDS011;7141;49.484;11.242;2022-08-02T07:28:59;6.07;;;4.40;;
14125;SDS011;7141;49.484;11.242;2022-08-02T07:31:26;4.37;;;3.97;;
14125;SDS011;7141;49.484;11.242;2022-08-02T07:33:52;5.43;;;4.00;;
14125;SDS011;7141;49.484;11.242;2022-08-02T07:36:18;5.57;;;3.80;;
14125;SDS011;7141;49.484;11.242;2022-08-02T07:38:44;4.37;;;3.97;;
14125;SDS011;7141;49.484;11.242;2022-08-02T07:41:10;4.17;;;3.67;;
14125;SDS011;7141;49.484;11.242;2022-08-02T07:43:36;3.93;;;3.50;;
14125;SDS011;7141;49.484;11.242;2022-08-02T07:46:02;4.00;;;3.53;;
14125;SDS011;7141;49.484;11.242;2022-08-02T07:48:28;4.33;;;3.23;;
14125;SDS011;7141;49.484;11.242;2022-08-02T07:50:54;4.37;;;3.97;;
14125;SDS011;7141;49.484;11.242;2022-08-02T07:53:20;4.20;;;3.80;;
14125;SDS011;7141;49.484;11.242;2022-08-02T07:55:46;3.97;;;3.57;;
14125;SDS011;7141;49.484;11.242;2022-08-02T07:58:12;4.30;;;3.57;;
14125;SDS011;7141;49.484;11.242;2022-08-02T08:00:38;4.90;;;3.97;;
14125;SDS011;7141;49.484;11.242;2022-08-02T08:03:04;6.23;;;3.70;;
14125;SDS011;7141;49.484;11.242;2022-08-02T08:05:30;5.10;;;3.60;;
14125;SDS011;7141;49.484;11.242;2022-08-02T08:07:56;4.17;;;3.77;;
14125;SDS011;7141;49.484;11.242;2022-08-02T08:10:22;4.67;;;3.47;;
14125;SDS011;7141;49.484;11.242;2022-08-02T08:12:48;3.67;;;3.37;;
14125;SDS011;7141;49.484;11.242;2022-08-02T08:15:14;4.37;;;3.40;;
14125;SDS011;7141;49.484;11.242;2022-08-02T08:17:41;4.00;;;3.57;;
14125;SDS011;7141;49.484;11.242;2022-08-02T08:20:07;4.50;;;3.90;;
14125;SDS011;7141;49.484;11.242;2022-08-02T08:22:33;3.80;;;3.50;;
14125;SDS011;7141;49.484;11.242;2022-08-02T08:24:59;6.50;;;3.97;;
14125;SDS011;7141;49.484;11.242;2022-08-02T08:27:25;4.33;;;3.80;;
14125;SDS011;7141;49.484;11.242;2022-08-02T08:29:51;3.97;;;3.57;;
14125;SDS011;7141;49.484;11.242;2022-08-02T08:32:17;7.07;;;4.40;;
14125;SDS011;7141;49.484;11.242;2022-08-02T08:34:43;5.00;;;4.50;;
14125;SDS011;7141;49.484;11.242;2022-08-02T08:37:09;5.00;;;4.47;;
14125;SDS011;7141;49.484;11.242;2022-08-02T08:39:35;4.87;;;4.47;;
14125;SDS011;7141;49.484;11.242;2022-08-02T08:42:04;7.13;;;4.43;;
14125;SDS011;7141;49.484;11.242;2022-08-02T08:44:30;4.90;;;4.33;;
14125;SDS011;7141;49.484;11.242;2022-08-02T08:46:57;3.77;;;3.40;;
14125;SDS011;7141;49.484;11.242;2022-08-02T08:49:25;4.40;;;4.00;;
14125;SDS011;7141;49.484;11.242;2022-08-02T08:51:52;4.40;;;4.00;;
14125;SDS011;7141;49.484;11.242;2022-08-02T08:54:19;4.40;;;3.97;;
14125;SDS011;7141;49.484;11.242;2022-08-02T08:56:48;4.67;;;4.17;;
14125;SDS011;7141;49.484;11.242;2022-08-02T08:59:14;3.80;;;3.50;;
14125;SDS011;7141;49.484;11.242;2022-08-02T09:01:40;4.00;;;3.17;;
14125;SDS011;7141;49.484;11.242;2022-08-02T09:04:09;3.40;;;3.10;;
14125;SDS011;7141;49.484;11.242;2022-08-02T09:06:35;3.33;;;3.03;;
14125;SDS011;7141;49.484;11.242;2022-08-02T09:09:01;3.50;;;3.20;;
14125;SDS011;7141;49.484;11.242;2022-08-02T09:11:27;3.40;;;3.10;;
14125;SDS011;7141;49.484;11.242;2022-08-02T09:13:54;3.17;;;2.87;;
14125;SDS011;7141;49.484;11.242;2022-08-02T09:18:55;3.27;;;2.97;;
14125;SDS011;7141;49.484;11.242;2022-08-02T09:21:21;4.33;;;3.00;;
14125;SDS011;7141;49.484;11.242;2022-08-02T09:23:49;3.33;;;2.97;;
14125;SDS011;7141;49.484;11.242;2022-08-02T09:26:19;5.87;;;3.00;;
14125;SDS011;7141;49.484;11.242;2022-08-02T09:28:46;4.80;;;3.07;;
14125;SDS011;7141;49.484;11.242;2022-08-02T09:31:21;5.60;;;3.15;;
14125;SDS011;7141;49.484;11.242;2022-08-02T09:33:52;3.45;;;3.15;;
14125;SDS011;7141;49.484;11.242;2022-08-02T09:36:19;5.82;;;3.38;;
14125;SDS011;7141;49.484;11.242;2022-08-02T09:38:58;3.47;;;3.10;;
14125;SDS011;7141;49.484;11.242;2022-08-02T09:41:31;3.67;;;3.08;;
14125;SDS011;7141;49.484;11.242;2022-08-02T09:43:57;3.20;;;2.90;;
14125;SDS011;7141;49.484;11.242;2022-08-02T09:46:24;3.42;;;3.00;;
14125;SDS011;7141;49.484;11.242;2022-08-02T09:48:52;3.75;;;2.80;;
14125;SDS011;7141;49.484;11.242;2022-08-02T09:51:19;3.08;;;2.88;;
14125;SDS011;7141;49.484;11.242;2022-08-02T09:53:46;5.85;;;2.90;;
14125;SDS011;7141;49.484;11.242;2022-08-02T09:56:12;3.60;;;3.30;;
14125;SDS011;7141;49.484;11.242;2022-08-02T09:58:38;3.15;;;2.90;;
14125;SDS011;7141;49.484;11.242;2022-08-02T10:01:04;5.95;;;3.15;;
14125;SDS011;7141;49.484;11.242;2022-08-02T10:03:30;4.35;;;3.70;;
14125;SDS011;7141;49.484;11.242;2022-08-02T10:05:56;3.33;;;3.03;;
14125;SDS011;7141;49.484;11.242;2022-08-02T10:08:24;4.18;;;3.22;;
14125;SDS011;7141;49.484;11.242;2022-08-02T10:10:50;4.03;;;3.60;;
14125;SDS011;7141;49.484;11.242;2022-08-02T10:13:25;4.38;;;3.85;;
14125;SDS011;7141;49.484;11.242;2022-08-02T10:15:52;4.43;;;3.72;;
14125;SDS011;7141;49.484;11.242;2022-08-02T10:18:19;4.47;;;3.60;;
14125;SDS011;7141;49.484;11.242;2022-08-02T10:20:45;3.17;;;2.92;;
14125;SDS011;7141;49.484;11.242;2022-08-02T10:23:12;3.90;;;2.92;;
14125;SDS011;7141;49.484;11.242;2022-08-02T10:25:38;3.00;;;2.80;;
14125;SDS011;7141;49.484;11.242;2022-08-02T10:28:07;3.63;;;2.70;;
14125;SDS011;7141;49.484;11.242;2022-08-02T10:30:35;3.53;;;2.78;;
14125;SDS011;7141;49.484;11.242;2022-08-02T10:33:02;4.40;;;2.65;;
14125;SDS011;7141;49.484;11.242;2022-08-02T10:35:29;4.20;;;2.33;;
14125;SDS011;7141;49.484;11.242;2022-08-02T10:38:01;2.65;;;2.42;;
14125;SDS011;7141;49.484;11.242;2022-08-02T10:54:16;3.20;;;2.90;;
14125;SDS011;7141;49.484;11.242;2022-08-02T10:56:44;3.10;;;2.80;;
14125;SDS011;7141;49.484;11.242;2022-08-02T11:01:56;2.50;;;2.30;;
14125;SDS011;7141;49.484;11.242;2022-08-02T11:04:29;3.33;;;2.63;;
14125;SDS011;7141;49.484;11.242;2022-08-02T11:09:34;2.53;;;2.30;;
14125;SDS011;7141;49.484;11.242;2022-08-02T11:12:04;2.80;;;2.47;;
14125;SDS011;7141;49.484;11.242;2022-08-02T11:14:31;3.10;;;2.65;;
14125;SDS011;7141;49.484;11.242;2022-08-02T11:19:26;5.95;;;2.70;;
14125;SDS011;7141;49.484;11.242;2022-08-02T11:22:06;2.83;;;2.60;;
14125;SDS011;7141;49.484;11.242;2022-08-02T11:24:37;3.97;;;2.70;;
14125;SDS011;7141;49.484;11.242;2022-08-02T11:27:04;3.05;;;2.75;;
14125;SDS011;7141;49.484;11.242;2022-08-02T11:29:40;4.63;;;3.03;;
14125;SDS011;7141;49.484;11.242;2022-08-02T11:32:07;4.13;;;2.50;;
14125;SDS011;7141;49.484;11.242;2022-08-02T11:34:41;3.17;;;2.45;;
14125;SDS011;7141;49.484;11.242;2022-08-02T11:37:07;3.28;;;2.97;;
14125;SDS011;7141;49.484;11.242;2022-08-02T11:39:34;2.80;;;2.50;;
14125;SDS011;7141;49.484;11.242;2022-08-02T11:42:00;3.92;;;2.97;;
14125;SDS011;7141;49.484;11.242;2022-08-02T11:44:26;4.60;;;3.05;;
14125;SDS011;7141;49.484;11.242;2022-08-02T11:46:56;3.33;;;3.03;;
14125;SDS011;7141;49.484;11.242;2022-08-02T11:49:23;4.35;;;3.20;;
14125;SDS011;7141;49.484;11.242;2022-08-02T11:51:53;4.15;;;2.90;;
14125;SDS011;7141;49.484;11.242;2022-08-02T11:54:23;3.67;;;3.00;;
14125;SDS011;7141;49.484;11.242;2022-08-02T11:56:49;3.53;;;3.08;;
14125;SDS011;7141;49.484;11.242;2022-08-02T11:59:15;5.65;;;2.95;;
14125;SDS011;7141;49.484;11.242;2022-08-02T12:01:41;2.83;;;2.60;;
14125;SDS011;7141;49.484;11.242;2022-08-02T12:04:07;3.83;;;3.28;;
14125;SDS011;7141;49.484;11.242;2022-08-02T12:06:33;3.38;;;2.88;;
14125;SDS011;7141;49.484;11.242;2022-08-02T12:09:06;3.00;;;2.80;;
14125;SDS011;7141;49.484;11.242;2022-08-02T12:11:33;3.50;;;3.15;;
14125;SDS011;7141;49.484;11.242;2022-08-02T12:14:00;3.83;;;3.08;;
14125;SDS011;7141;49.484;11.242;2022-08-02T12:16:36;3.47;;;3.17;;
14125;SDS011;7141;49.484;11.242;2022-08-02T12:19:22;3.13;;;2.83;;
14125;SDS011;7141;49.484;11.242;2022-08-02T12:22:08;2.92;;;2.72;;
14125;SDS011;7141;49.484;11.242;2022-08-02T12:24:34;3.28;;;2.97;;
14125;SDS011;7141;49.484;11.242;2022-08-02T12:27:00;2.90;;;2.60;;
14125;SDS011;7141;49.484;11.242;2022-08-02T12:29:30;3.17;;;2.88;;
14125;SDS011;7141;49.484;11.242;2022-08-02T12:31:56;2.90;;;2.70;;
14125;SDS011;7141;49.484;11.242;2022-08-02T12:34:23;2.80;;;2.60;;
14125;SDS011;7141;49.484;11.242;2022-08-02T12:37:03;2.80;;;2.47;;
14125;SDS011;7141;49.484;11.242;2022-08-02T12:39:42;2.90;;;2.70;;
14125;SDS011;7141;49.484;11.242;2022-08-02T12:42:10;3.85;;;2.90;;
14125;SDS011;7141;49.484;11.242;2022-08-02T12:44:38;4.70;;;2.50;;
14125;SDS011;7141;49.484;11.242;2022-08-02T12:47:14;5.07;;;2.80;;
14125;SDS011;7141;49.484;11.242;2022-08-02T12:49:40;4.00;;;2.75;;
14125;SDS011;7141;49.484;11.242;2022-08-02T12:52:21;3.22;;;2.67;;
14125;SDS011;7141;49.484;11.242;2022-08-02T12:54:48;3.75;;;2.63;;
14125;SDS011;7141;49.484;11.242;2022-08-02T12:57:15;2.95;;;2.75;;
14125;SDS011;7141;49.484;11.242;2022-08-02T12:59:43;4.07;;;2.55;;
14125;SDS011;7141;49.484;11.242;2022-08-02T13:02:13;2.97;;;2.60;;
14125;SDS011;7141;49.484;11.242;2022-08-02T13:04:40;2.65;;;2.45;;
14125;SDS011;7141;49.484;11.242;2022-08-02T13:07:07;2.63;;;2.42;;
14125;SDS011;7141;49.484;11.242;2022-08-02T13:09:39;2.63;;;2.22;;
14125;SDS011;7141;49.484;11.242;2022-08-02T13:12:09;2.92;;;2.40;;
14125;SDS011;7141;49.484;11.242;2022-08-02T13:14:35;2.90;;;2.70;;
14125;SDS011;7141;49.484;11.242;2022-08-02T13:17:02;2.53;;;2.33;;
14125;SDS011;7141;49.484;11.242;2022-08-02T13:19:28;4.40;;;2.65;;
14125;SDS011;7141;49.484;11.242;2022-08-02T13:21:54;2.50;;;2.20;;
14125;SDS011;7141;49.484;11.242;2022-08-02T13:24:20;2.75;;;2.40;;
14125;SDS011;7141;49.484;11.242;2022-08-02T13:26:46;2.67;;;2.38;;
14125;SDS011;7141;49.484;11.242;2022-08-02T13:29:12;2.38;;;2.15;;
14125;SDS011;7141;49.484;11.242;2022-08-02T13:31:50;2.40;;;2.20;;
14125;SDS011;7141;49.484;11.242;2022-08-02T13:34:16;3.17;;;2.30;;
14125;SDS011;7141;49.484;11.242;2022-08-02T13:36:42;2.60;;;2.40;;
14125;SDS011;7141;49.484;11.242;2022-08-02T13:39:08;2.90;;;2.08;;
14125;SDS011;7141;49.484;11.242;2022-08-02T13:41:35;2.63;;;2.42;;
14125;SDS011;7141;49.484;11.242;2022-08-02T13:44:01;3.75;;;2.17;;
14125;SDS011;7141;49.484;11.242;2022-08-02T13:46:27;3.38;;;2.00;;
14125;SDS011;7141;49.484;11.242;2022-08-02T13:48:53;2.60;;;2.40;;
14125;SDS011;7141;49.484;11.242;2022-08-02T13:51:19;3.70;;;2.58;;
14125;SDS011;7141;49.484;11.242;2022-08-02T13:53:45;5.20;;;2.53;;
14125;SDS011;7141;49.484;11.242;2022-08-02T13:56:11;2.42;;;2.20;;
14125;SDS011;7141;49.484;11.242;2022-08-02T13:58:37;2.60;;;2.40;;
14125;SDS011;7141;49.484;11.242;2022-08-02T14:01:03;4.28;;;2.58;;
14125;SDS011;7141;49.484;11.242;2022-08-02T14:03:29;4.75;;;2.20;;
14125;SDS011;7141;49.484;11.242;2022-08-02T14:05:55;3.92;;;2.00;;
14125;SDS011;7141;49.484;11.242;2022-08-02T14:08:21;5.47;;;2.75;;
14125;SDS011;7141;49.484;11.242;2022-08-02T14:10:48;2.50;;;2.30;;
14125;SDS011;7141;49.484;11.242;2022-08-02T14:13:14;2.70;;;2.45;;
14125;SDS011;7141;49.484;11.242;2022-08-02T14:15:41;3.90;;;2.50;;
14125;SDS011;7141;49.484;11.242;2022-08-02T14:18:07;2.70;;;2.30;;
14125;SDS011;7141;49.484;11.242;2022-08-02T14:20:33;3.17;;;2.40;;
14125;SDS011;7141;49.484;11.242;2022-08-02T14:22:59;2.85;;;2.60;;
14125;SDS011;7141;49.484;11.242;2022-08-02T14:25:25;2.90;;;2.10;;
14125;SDS011;7141;49.484;11.242;2022-08-02T14:27:51;2.80;;;2.38;;
14125;SDS011;7141;49.484;11.242;2022-08-02T14:30:17;2.30;;;2.10;;
14125;SDS011;7141;49.484;11.242;2022-08-02T14:32:43;2.35;;;2.15;;
14125;SDS011;7141;49.484;11.242;2022-08-02T14:35:09;3.17;;;2.45;;
14125;SDS011;7141;49.484;11.242;2022-08-02T14:37:35;2.45;;;2.25;;
14125;SDS011;7141;49.484;11.242;2022-08-02T14:40:01;2.45;;;2.25;;
14125;SDS011;7141;49.484;11.242;2022-08-02T14:42:27;3.45;;;2.28;;
14125;SDS011;7141;49.484;11.242;2022-08-02T14:44:53;3.03;;;2.50;;
14125;SDS011;7141;49.484;11.242;2022-08-02T14:47:19;3.88;;;2.58;;
14125;SDS011;7141;49.484;11.242;2022-08-02T14:49:45;4.88;;;2.50;;
14125;SDS011;7141;49.484;11.242;2022-08-02T14:52:11;4.07;;;2.40;;
14125;SDS011;7141;49.484;11.242;2022-08-02T14:54:38;2.90;;;2.10;;
14125;SDS011;7141;49.484;11.242;2022-08-02T14:57:05;2.60;;;2.40;;
14125;SDS011;7141;49.484;11.242;2022-08-02T14:59:31;2.58;;;2.38;;
14125;SDS011;7141;49.484;11.242;2022-08-02T15:01:57;3.38;;;2.42;;
14125;SDS011;7141;49.484;11.242;2022-08-02T15:04:24;2.42;;;2.20;;
14125;SDS011;7141;49.484;11.242;2022-08-02T15:06:51;3.15;;;2.45;;
14125;SDS011;7141;49.484;11.242;2022-08-02T15:09:17;3.47;;;2.40;;
14125;SDS011;7141;49.484;11.242;2022-08-02T15:11:43;5.03;;;2.80;;
14125;SDS011;7141;49.484;11.242;2022-08-02T15:14:09;2.78;;;2.58;;
14125;SDS011;7141;49.484;11.242;2022-08-02T15:16:35;3.63;;;2.30;;
14125;SDS011;7141;49.484;11.242;2022-08-02T15:19:02;2.85;;;2.20;;
14125;SDS011;7141;49.484;11.242;2022-08-02T15:21:28;2.45;;;2.20;;
14125;SDS011;7141;49.484;11.242;2022-08-02T15:23:54;3.42;;;2.72;;
14125;SDS011;7141;49.484;11.242;2022-08-02T15:26:20;4.03;;;2.60;;
14125;SDS011;7141;49.484;11.242;2022-08-02T15:28:47;2.47;;;2.28;;